Cotton, MN (55724)

3:19 PM CDT on September 01, 2014 (GMT -0500)
Leisure Lake,Mn | Change Station
CLOSE
Current Station
Personal Weather Station
Location: Makinen, MN
Elevation: 1427 ft
Nearby Weather Stations

Elev 1427 ft 47.33 °N, 92.34 °W | Updated 5 minutes ago

Partly Cloudy
Partly Cloudy
68.0 °F
Feels Like 68.0 °F
N
0.0
Wind Variable Wind from SSE

Today
High -- | Low -- °F
--% Chance of Precip.
Yesterday
High -- | Low -- °F
Precip. -- in
6:29 AM 7:49 PM
Waxing Crescent, 44% visible
Pressure 29.68 in
Visibility 10.0 miles
Clouds Scattered Clouds 3900 ft
Scattered Clouds 6000 ft
Dew Point 58 °F
Humidity 70%
Rainfall 0.06 in
Snow Depth Not available.
UV 5 out of 12
Pollen 3.00 out of 12
Air Quality Not available.
Flu Activity Not available.
METAR KEVM 012011Z AUTO 26012G17KT 10SM SCT039 SCT060 22/12 A2968 RMK AO2

More Conditions Fewer Conditions

Pressure 29.68 in
Visibility 10.0 miles
Clouds Scattered Clouds 3900 ft
Scattered Clouds 6000 ft
Dew Point 58 °F
Humidity 70%
Rainfall 0.06 in
Snow Depth Not available.
UV 5 out of 12
Pollen 3.00 out of 12
Air Quality Not available.
Flu Activity Not available.
METAR KEVM 012011Z AUTO 26012G17KT 10SM SCT039 SCT060 22/12 A2968 RMK AO2

More Conditions Fewer Conditions

10-Day Weather Forecast

Almanac

Astronomy

Sep. 01, 2014 Rise Set
Actual Time 6:29 AM CDT 7:49 PM CDT
Civil Twilight 5:57 AM CDT 8:21 PM CDT
Nautical Twilight 5:19 AM CDT 8:59 PM CDT
Astronomical Twilight 4:38 AM CDT 9:40 PM CDT
Moon 1:42 PM CDT 11:24 PM CDT
Length of Visible Light 14h 23m
Length of Day
13h 20m
Tomorrow will be 3m 16s shorter.
Waxing Crescent, 44% of the Moon is Illuminated
Today
Waxing Crescent
Sep 2
First Quarter
Sep 8
Full
Sep 15
Last Quarter
Sep 24
New

Today's Extremes

State Highs State Lows

Community

WunderPhotos

Upload Photos

1,749,394 photos uploaded!

WunderBlogs® & News

Nearby

Snow Depth

Station Depth Elevation
No new snow has been reported.

Earthquake Activity

City Distance Mag. Time & Date
No recent earthquake activity has been reported nearby.
Minimum magnitude displayed is 2.5.

Coastal Water Temperatures

Place Temperature
No Stations Reporting

Nearby Weather Stations